Time;durP1;ratioP1;P1;durP2;ratioP2;P2;SDS_P1;SDS_P2;PMS_P1;PMS_P2;Temp;Humidity;BMP_temperature;BMP_pressure;BME280_temperature;BME280_humidity;BME280_pressure;Samples;Min_cycle;Max_cycle;Signal;HPM_P1;HPM_P2
2022/05/23 00:00:28;;;;;;;0.70;0.70;;;17.40;59.10;16.70;97541.00;;;;5013688;28;20510;-76
2022/05/23 00:02:58;;;;;;;0.57;0.57;;;17.30;59.40;16.80;97545.00;;;;5013494;28;20256;-76
2022/05/23 00:05:25;;;;;;;0.90;0.90;;;17.30;60.00;16.80;97547.00;;;;5013517;28;20198;-76
2022/05/23 00:07:53;;;;;;;0.50;0.50;;;17.30;59.80;16.80;97544.00;;;;4996071;28;20559;-76
2022/05/23 00:10:22;;;;;;;0.60;0.60;;;17.30;60.30;16.70;97542.00;;;;5013430;28;20193;-76
2022/05/23 00:12:48;;;;;;;0.70;0.70;;;17.30;60.50;16.70;97537.00;;;;5013406;28;20304;-76
2022/05/23 00:15:15;;;;;;;0.50;0.50;;;17.30;60.60;16.80;97540.00;;;;5013342;28;20202;-76
2022/05/23 00:17:43;;;;;;;1.93;1.13;;;17.30;60.50;16.80;97538.00;;;;5013254;28;20217;-76
2022/05/23 00:20:14;;;;;;;0.50;0.50;;;17.30;59.90;16.60;97533.00;;;;5013309;28;20193;-75
2022/05/23 00:22:41;;;;;;;0.50;0.50;;;17.20;59.60;16.50;97535.00;;;;5013388;28;20534;-75
2022/05/23 00:25:09;;;;;;;0.83;0.83;;;17.10;59.80;16.50;97535.00;;;;5013122;28;20229;-75
2022/05/23 00:27:42;;;;;;;0.40;0.40;;;17.10;60.40;16.40;97532.00;;;;5013240;28;20225;-75
2022/05/23 00:30:12;;;;;;;0.50;0.50;;;17.00;61.00;16.30;97495.00;;;;4995929;28;20331;-75
2022/05/23 00:35:27;;;;;;;0.60;0.60;;;17.00;61.60;16.40;97474.00;;;;5013154;28;20278;-76
2022/05/23 00:37:56;;;;;;;0.63;0.63;;;17.00;61.30;16.30;97491.00;;;;5013075;28;20236;-76
2022/05/23 00:40:48;;;;;;;0.60;0.60;;;16.80;61.20;16.20;97484.00;;;;4995967;28;20193;-76
2022/05/23 00:43:20;;;;;;;6.33;1.07;;;16.70;61.50;16.20;97478.00;;;;5013103;28;20201;-77
2022/05/23 00:45:51;;;;;;;0.60;0.60;;;16.70;61.70;16.20;97474.00;;;;5016147;28;20193;-77
2022/05/23 00:48:27;;;;;;;0.60;0.60;;;16.70;61.90;16.10;97472.00;;;;5016362;28;20212;-76
2022/05/23 00:50:57;;;;;;;0.70;0.70;;;16.70;62.20;16.10;97472.00;;;;4999081;28;20637;-76
2022/05/23 00:53:30;;;;;;;0.63;0.63;;;16.60;62.00;16.10;97466.00;;;;5016275;28;20198;-76
2022/05/23 00:55:59;;;;;;;0.80;0.80;;;16.60;62.00;16.00;97458.00;;;;5016272;28;20224;-76
2022/05/23 00:58:33;;;;;;;0.50;0.50;;;16.50;62.00;16.00;97459.00;;;;5016057;28;20315;-76
2022/05/23 01:01:07;;;;;;;2.40;1.63;;;16.50;62.70;15.90;97456.00;;;;5016199;28;20202;-76
2022/05/23 01:03:34;;;;;;;0.70;0.70;;;16.40;62.70;15.70;97462.00;;;;5016051;28;20672;-76
2022/05/23 01:06:02;;;;;;;0.80;0.80;;;16.40;63.30;15.70;97464.00;;;;5016016;28;20206;-75
2022/05/23 01:08:28;;;;;;;0.60;0.60;;;16.30;64.50;15.70;97462.00;;;;5015973;28;20295;-74
2022/05/23 01:10:55;;;;;;;0.77;0.77;;;16.30;64.90;15.80;97460.00;;;;5015937;28;20274;-77
2022/05/23 01:13:21;;;;;;;1.13;1.13;;;16.30;64.90;15.70;97456.00;;;;5016037;28;20276;-77
2022/05/23 01:15:50;;;;;;;0.60;0.60;;;16.30;65.80;15.70;97448.00;;;;5015060;28;20617;-76
2022/05/23 01:18:17;;;;;;;0.50;0.50;;;16.30;65.40;15.60;97433.00;;;;5016064;28;20240;-76
2022/05/23 01:20:45;;;;;;;14.60;1.10;;;16.20;65.70;15.60;97357.00;;;;5015863;28;20221;-76
2022/05/23 01:23:26;;;;;;;1.27;1.17;;;16.20;65.90;15.60;97423.00;;;;5015830;28;20201;-77
2022/05/23 01:25:54;;;;;;;0.50;0.50;;;16.20;65.50;15.60;97426.00;;;;5015812;28;20224;-77
2022/05/23 01:28:21;;;;;;;0.50;0.50;;;16.10;65.10;15.50;97417.00;;;;4998587;28;20266;-77
2022/05/23 01:30:48;;;;;;;0.90;0.90;;;16.10;65.00;15.60;97420.00;;;;5015677;28;20201;-75
2022/05/23 01:33:15;;;;;;;0.60;0.60;;;16.10;64.90;15.60;97417.00;;;;5015653;28;20268;-77
2022/05/23 01:35:44;;;;;;;0.83;0.83;;;16.10;65.50;15.60;97430.00;;;;5015639;28;20197;-77
2022/05/23 01:38:11;;;;;;;0.87;0.87;;;16.10;65.50;15.40;97424.00;;;;5015627;28;20562;-77
2022/05/23 01:40:37;;;;;;;0.50;0.50;;;16.00;66.00;15.40;97427.00;;;;5015688;28;20205;-77
2022/05/23 01:43:05;;;;;;;0.83;0.83;;;15.90;67.20;15.50;97423.00;;;;4998301;28;20236;-77
2022/05/23 01:45:37;;;;;;;0.70;0.70;;;16.00;67.40;15.50;97429.00;;;;5015646;28;20198;-77
2022/05/23 01:48:06;;;;;;;0.73;0.73;;;16.00;67.30;15.50;97411.00;;;;5015497;28;20225;-76
2022/05/23 01:50:36;;;;;;;0.73;0.73;;;16.00;67.40;15.50;97415.00;;;;5015538;28;20236;-78
2022/05/23 01:53:05;;;;;;;0.60;0.60;;;16.00;67.30;15.30;97418.00;;;;4998121;28;20534;-77
2022/05/23 01:55:32;;;;;;;6.13;1.00;;;16.00;67.60;15.30;97413.00;;;;5014537;28;20281;-77
2022/05/23 01:57:59;;;;;;;0.60;0.60;;;15.90;68.00;15.40;97408.00;;;;5015169;28;20321;-77
2022/05/23 02:03:12;;;;;;;0.80;0.80;;;15.90;67.60;15.40;97421.00;;;;5015289;28;20629;-77
2022/05/23 02:05:42;;;;;;;0.60;0.60;;;15.90;67.80;15.30;97417.00;;;;5015099;28;20252;-77
2022/05/23 02:08:09;;;;;;;0.60;0.60;;;15.90;67.90;15.30;97401.00;;;;5015222;28;20816;-77
2022/05/23 02:10:38;;;;;;;0.70;0.70;;;15.90;67.90;15.40;97395.00;;;;5015012;28;20233;-77
2022/05/23 02:13:05;;;;;;;0.87;0.87;;;15.90;68.60;15.30;97390.00;;;;5015392;28;20205;-77
2022/05/23 02:15:33;;;;;;;0.60;0.60;;;15.90;67.50;15.10;97382.00;;;;5015114;28;20206;-77
2022/05/23 02:18:01;;;;;;;0.60;0.60;;;15.70;67.30;15.00;97379.00;;;;5015009;28;20217;-77
2022/05/23 02:20:30;;;;;;;0.80;0.80;;;15.60;67.60;15.10;97378.00;;;;4997765;28;20304;-77
2022/05/23 02:22:57;;;;;;;0.77;0.77;;;15.60;68.10;15.10;97381.00;;;;5014835;28;20228;-77
2022/05/23 02:25:25;;;;;;;0.60;0.60;;;15.60;68.30;14.90;97381.00;;;;5015045;28;20276;-77
2022/05/23 02:27:56;;;;;;;1.27;0.87;;;15.50;68.70;14.90;97371.00;;;;4997530;28;20254;-77
2022/05/23 02:30:23;;;;;;;0.60;0.60;;;15.50;69.30;14.90;97379.00;;;;5014816;28;20524;-77
2022/05/23 02:32:50;;;;;;;1.27;1.17;;;15.40;70.00;14.90;97377.00;;;;4997525;28;20673;-77
2022/05/23 02:35:20;;;;;;;0.50;0.50;;;15.40;69.80;15.00;97365.00;;;;5014918;28;20228;-77
2022/05/23 02:37:48;;;;;;;0.70;0.70;;;15.50;69.40;14.90;97361.00;;;;5014710;28;20308;-77
2022/05/23 02:40:15;;;;;;;0.70;0.70;;;15.40;69.10;14.80;97347.00;;;;5013807;28;20201;-76
2022/05/23 02:42:41;;;;;;;0.83;0.83;;;15.40;69.00;14.80;97345.00;;;;5014708;28;20244;-77
2022/05/23 02:45:09;;;;;;;0.70;0.70;;;15.30;69.40;14.80;97346.00;;;;5014551;28;20653;-77
2022/05/23 02:47:36;;;;;;;0.60;0.60;;;15.40;69.40;14.70;97338.00;;;;5014546;28;20221;-77
2022/05/23 02:50:09;;;;;;;0.50;0.50;;;15.30;69.70;14.90;97318.00;;;;5014457;28;20221;-77
2022/05/23 02:52:36;;;;;;;0.50;0.50;;;15.40;69.60;14.80;97330.00;;;;4997265;28;20630;-77
2022/05/23 02:55:07;;;;;;;0.60;0.60;;;15.40;69.90;14.90;97324.00;;;;5014330;28;20229;-76
2022/05/23 02:57:34;;;;;;;0.60;0.60;;;15.40;69.90;14.90;97319.00;;;;5014364;28;20282;-77
2022/05/23 03:00:00;;;;;;;1.07;0.83;;;15.40;70.70;15.00;97299.00;;;;5014587;28;20212;-77
2022/05/23 03:05:14;;;;;;;1.00;1.00;;;15.50;70.60;15.00;97303.00;;;;5014286;28;20585;-77
2022/05/23 03:07:41;;;;;;;0.80;0.80;;;15.50;70.40;15.10;97297.00;;;;5014181;28;20225;-77
2022/05/23 03:10:09;;;;;;;0.73;0.73;;;15.60;71.50;15.00;97298.00;;;;5014184;28;20248;-77
2022/05/23 03:12:35;;;;;;;0.70;0.70;;;15.60;71.10;15.00;97284.00;;;;5013471;28;20217;-76
2022/05/23 03:15:06;;;;;;;0.60;0.60;;;15.60;71.00;15.20;97291.00;;;;5014168;28;20633;-76
2022/05/23 03:17:33;;;;;;;2.57;0.93;;;15.60;71.10;15.20;97289.00;;;;5013887;28;20205;-77
2022/05/23 03:20:00;;;;;;;0.60;0.60;;;15.70;71.40;15.10;97294.00;;;;4996760;28;20217;-76
2022/05/23 03:28:00;;;;;;;0.67;0.67;;;15.70;69.90;15.10;97304.00;;;;5014029;28;20194;-77
2022/05/23 03:30:27;;;;;;;1.63;1.53;;;15.60;69.40;15.30;97299.00;;;;5013903;28;20212;-76
2022/05/23 03:32:54;;;;;;;0.60;0.60;;;15.70;69.70;15.20;97310.00;;;;5013912;28;20193;-77
2022/05/23 03:35:21;;;;;;;0.60;0.60;;;15.70;69.70;15.20;97313.00;;;;5013782;28;20213;-76
2022/05/23 03:37:52;;;;;;;0.73;0.73;;;15.70;69.90;15.20;97314.00;;;;5013853;28;20225;-77
2022/05/23 03:40:18;;;;;;;0.70;0.70;;;15.70;70.00;15.30;97296.00;;;;5013790;28;20263;-77
2022/05/23 03:42:45;;;;;;;0.60;0.60;;;15.70;70.30;15.20;97292.00;;;;5013807;28;20689;-76
2022/05/23 03:45:14;;;;;;;0.50;0.50;;;15.70;69.70;15.20;97289.00;;;;5013735;28;20217;-77
2022/05/23 03:47:41;;;;;;;0.63;0.63;;;15.70;70.10;15.10;97289.00;;;;5013714;28;20198;-77
2022/05/23 03:50:09;;;;;;;1.00;0.97;;;15.60;69.20;15.20;97299.00;;;;5013802;28;20213;-77
2022/05/23 03:52:39;;;;;;;0.80;0.80;;;15.70;70.00;15.00;97311.00;;;;5013752;28;20224;-77
2022/05/23 03:55:07;;;;;;;0.60;0.60;;;15.60;69.80;15.00;97337.00;;;;5013697;28;20221;-77
2022/05/23 03:57:34;;;;;;;1.07;1.07;;;15.60;70.00;15.00;97351.00;;;;5013435;28;20223;-77
2022/05/23 04:00:06;;;;;;;0.63;0.63;;;15.60;72.80;15.00;97377.00;;;;5013555;28;20201;-76
2022/05/23 04:02:32;;;;;;;2.63;1.70;;;15.60;74.90;15.00;97440.00;;;;5013555;28;20649;-76
2022/05/23 04:04:59;;;;;;;0.50;0.50;;;15.50;77.20;15.20;97512.00;;;;5013891;28;20710;-76
2022/05/23 04:07:27;;;;;;;0.60;0.60;;;15.50;81.00;15.00;97556.00;;;;5014158;28;20193;-76
2022/05/23 04:09:55;;;;;;;0.60;0.60;;;15.60;82.70;15.10;97546.00;;;;5019413;28;20194;-77
2022/05/23 04:12:23;;;;;;;0.60;0.60;;;15.70;83.30;15.10;97522.00;;;;4999386;28;20213;-77
2022/05/23 04:14:49;;;;;;;0.70;0.70;;;15.60;84.90;15.20;97525.00;;;;5013374;28;20645;-76
2022/05/23 04:17:16;;;;;;;1.07;1.07;;;15.70;84.70;15.20;97546.00;;;;5013446;28;20224;-77
2022/05/23 04:19:42;;;;;;;0.70;0.70;;;15.80;84.20;15.30;97538.00;;;;4997605;28;20336;-76
2022/05/23 04:22:09;;;;;;;0.53;0.53;;;15.80;85.10;15.30;97547.00;;;;5016644;28;20212;-76
2022/05/23 04:24:37;;;;;;;0.70;0.70;;;15.90;85.50;15.40;97558.00;;;;5015769;28;20197;-76
2022/05/23 04:27:04;;;;;;;0.50;0.50;;;15.80;86.20;15.30;97574.00;;;;5016697;28;20205;-77
2022/05/23 04:29:32;;;;;;;0.50;0.50;;;15.80;86.50;15.20;97568.00;;;;5016714;28;20228;-77
2022/05/23 04:31:58;;;;;;;0.50;0.50;;;15.80;87.70;15.30;97568.00;;;;5016518;28;20232;-77
2022/05/23 04:37:10;;;;;;;0.73;0.73;;;15.90;87.40;15.40;97579.00;;;;5016514;28;20248;-76
2022/05/23 04:39:36;;;;;;;1.00;1.00;;;15.90;87.00;15.40;97592.00;;;;5016358;28;20272;-76
2022/05/23 04:42:05;;;;;;;1.90;1.10;;;15.90;88.00;15.40;97587.00;;;;5016347;28;20282;-76
2022/05/23 04:44:32;;;;;;;0.70;0.70;;;15.90;89.40;15.40;97583.00;;;;5016404;28;20193;-76
2022/05/23 04:49:49;;;;;;;0.80;0.80;;;15.90;90.70;15.40;97538.00;;;;5016366;28;20221;-76
2022/05/23 04:52:19;;;;;;;0.70;0.70;;;16.00;90.50;15.40;97530.00;;;;5016304;28;20259;-76
2022/05/23 04:54:47;;;;;;;0.67;0.67;;;15.90;91.50;15.40;97509.00;;;;5016055;28;20221;-76
2022/05/23 04:57:14;;;;;;;1.53;1.43;;;15.90;92.50;15.50;97499.00;;;;5016171;28;20201;-76
2022/05/23 04:59:41;;;;;;;1.03;1.03;;;16.00;93.60;15.50;97492.00;;;;5016013;28;20249;-76
2022/05/23 05:02:08;;;;;;;0.50;0.50;;;16.00;94.20;15.40;97473.00;;;;5016056;28;20201;-76
2022/05/23 05:04:35;;;;;;;0.50;0.50;;;16.00;94.80;15.40;97452.00;;;;5016014;28;20616;-76
2022/05/23 05:07:02;;;;;;;0.70;0.70;;;16.00;95.10;15.50;97443.00;;;;5016086;28;20193;-76
2022/05/23 05:09:28;;;;;;;0.50;0.50;;;16.00;95.50;15.60;97438.00;;;;5016039;28;20201;-76
2022/05/23 05:11:55;;;;;;;0.70;0.70;;;16.00;96.00;15.70;97455.00;;;;4998993;28;20312;-76
2022/05/23 05:14:26;;;;;;;0.50;0.50;;;16.10;96.00;15.70;97461.00;;;;5015944;28;20231;-76
2022/05/23 05:16:53;;;;;;;0.60;0.60;;;16.20;95.60;15.70;97465.00;;;;5015800;28;20229;-76
2022/05/23 05:19:20;;;;;;;0.70;0.70;;;16.20;95.10;15.80;97449.00;;;;5015835;28;20248;-76
2022/05/23 05:21:47;;;;;;;0.60;0.60;;;16.20;95.10;15.70;97455.00;;;;5015757;28;20249;-76
2022/05/23 05:24:13;;;;;;;0.90;0.90;;;16.20;94.30;15.70;97427.00;;;;5015815;28;20280;-77
2022/05/23 05:26:40;;;;;;;1.53;1.43;;;16.20;93.70;15.70;97394.00;;;;5015661;28;20296;-76
2022/05/23 05:29:07;;;;;;;0.63;0.63;;;16.30;95.20;15.80;97404.00;;;;5015805;28;20263;-76
2022/05/23 05:31:44;;;;;;;0.83;0.83;;;16.20;96.10;15.80;97395.00;;;;4997527;28;20205;-76
2022/05/23 05:34:18;;;;;;;0.70;0.70;;;16.30;96.20;15.70;97384.00;;;;4998675;28;20551;-77
2022/05/23 05:36:51;;;;;;;2.13;1.33;;;16.30;95.90;15.70;97378.00;;;;5021292;28;20205;-77
2022/05/23 05:39:21;;;;;;;0.60;0.60;;;16.20;96.90;15.70;97377.00;;;;5001722;28;20233;-74
2022/05/23 05:42:01;;;;;;;0.53;0.53;;;16.30;97.50;15.90;97383.00;;;;5015947;28;20208;-73
2022/05/23 05:44:34;;;;;;;0.77;0.77;;;16.30;97.70;15.90;97376.00;;;;5015550;28;20225;-74
2022/05/23 05:47:08;;;;;;;1.40;1.30;;;16.30;97.30;15.90;97369.00;;;;5015416;28;20213;-74
2022/05/23 05:49:44;;;;;;;1.13;1.10;;;16.40;97.80;16.00;97349.00;;;;4997977;28;20233;-74
2022/05/23 05:52:13;;;;;;;0.83;0.83;;;16.40;97.70;16.10;97325.00;;;;4997948;28;20552;-74
2022/05/23 05:54:41;;;;;;;0.77;0.77;;;16.50;98.10;16.20;97319.00;;;;5015265;28;20197;-75
2022/05/23 05:57:12;;;;;;;0.50;0.50;;;16.60;97.40;16.30;97305.00;;;;5015302;28;20201;-77
2022/05/23 05:59:39;;;;;;;0.77;0.77;;;16.60;97.20;16.30;97279.00;;;;5015234;28;20252;-78
2022/05/23 06:02:07;;;;;;;1.03;0.97;;;;;16.50;97280.00;;;;5015169;28;20253;-78
2022/05/23 06:04:34;;;;;;;0.50;0.50;;;16.90;95.70;16.60;97284.00;;;;5015176;28;20292;-78
2022/05/23 06:12:32;;;;;;;1.57;1.30;;;17.00;94.10;16.80;97303.00;;;;5014930;28;20240;-77
2022/05/23 06:15:02;;;;;;;0.70;0.70;;;17.10;93.90;16.80;97296.00;;;;5014958;28;20198;-76
2022/05/23 06:17:32;;;;;;;1.57;1.07;;;17.20;94.00;16.80;97279.00;;;;5014938;28;20233;-76
2022/05/23 06:19:58;;;;;;;0.70;0.70;;;17.30;94.00;16.80;97267.00;;;;5014881;28;20252;-77
2022/05/23 06:22:28;;;;;;;0.70;0.70;;;17.30;92.60;16.70;97254.00;;;;5015038;28;20213;-77
2022/05/23 06:24:58;;;;;;;0.87;0.87;;;17.20;92.20;16.60;97257.00;;;;5015009;28;20198;-81
2022/05/23 06:27:24;;;;;;;0.93;0.93;;;17.20;90.30;16.60;97246.00;;;;5014923;28;20591;-76
2022/05/23 06:29:51;;;;;;;0.60;0.60;;;17.10;91.50;16.70;97234.00;;;;5014696;28;20307;-71
2022/05/23 06:32:17;;;;;;;0.90;0.90;;;17.20;91.60;16.80;97212.00;;;;4997437;28;20209;-70
2022/05/23 06:34:44;;;;;;;0.70;0.70;;;17.20;92.00;16.80;97200.00;;;;5014567;28;20229;-71
2022/05/23 06:37:10;;;;;;;0.80;0.80;;;17.30;91.80;17.00;97197.00;;;;4997364;28;20271;-73
2022/05/23 06:39:38;;;;;;;1.53;1.10;;;17.40;91.40;17.00;97196.00;;;;5014533;28;20221;-71
2022/05/23 06:42:05;;;;;;;0.50;0.50;;;17.50;89.50;17.10;97197.00;;;;5014324;28;20572;-71
2022/05/23 06:44:32;;;;;;;0.70;0.70;;;17.50;90.30;17.10;97168.00;;;;5014513;28;20563;-72
2022/05/23 06:46:59;;;;;;;0.60;0.60;;;17.60;90.60;17.30;97189.00;;;;5014668;28;20201;-71
2022/05/23 06:49:26;;;;;;;1.10;1.10;;;17.80;91.60;17.40;97200.00;;;;5014531;28;20665;-72
2022/05/23 06:51:52;;;;;;;0.80;0.80;;;17.80;91.60;17.50;97208.00;;;;5014464;28;20232;-72
2022/05/23 06:54:21;;;;;;;1.07;1.07;;;17.90;89.80;17.60;97214.00;;;;5014385;28;20205;-72
2022/05/23 06:56:48;;;;;;;1.47;1.13;;;17.90;88.70;17.60;97218.00;;;;5014445;28;20247;-71
2022/05/23 06:59:19;;;;;;;1.20;1.10;;;18.00;88.70;17.80;97221.00;;;;5014189;28;20592;-72
2022/05/23 07:01:47;;;;;;;1.30;1.23;;;18.20;88.50;18.00;97221.00;;;;5014289;28;20197;-71
2022/05/23 07:04:16;;;;;;;1.00;1.00;;;18.30;88.90;17.90;97226.00;;;;5014259;28;20205;-71
2022/05/23 07:12:23;;;;;;;0.63;0.63;;;;;18.20;97215.00;;;;5012442;28;20200;-72
2022/05/23 07:14:51;;;;;;;0.70;0.70;;;;;18.40;97217.00;;;;5014060;28;20224;-71
2022/05/23 07:17:19;;;;;;;0.50;0.50;;;18.70;84.60;18.40;97224.00;;;;5014080;28;20205;-71
2022/05/23 07:19:45;;;;;;;5.10;1.23;;;18.70;84.90;18.50;97235.00;;;;5013839;28;20263;-72
2022/05/23 07:22:12;;;;;;;0.60;0.60;;;18.90;83.50;18.70;97225.00;;;;5013975;28;20197;-71
2022/05/23 07:24:38;;;;;;;0.83;0.83;;;19.00;82.10;18.50;97232.00;;;;5013947;28;20222;-71
2022/05/23 07:27:05;;;;;;;0.50;0.50;;;18.90;80.80;18.50;97231.00;;;;5013004;28;20535;-72
2022/05/23 07:29:34;;;;;;;0.63;0.63;;;18.90;81.10;18.60;97225.00;;;;5013954;28;20220;-72
2022/05/23 07:32:01;;;;;;;0.70;0.70;;;;;18.70;97229.00;;;;4996643;28;20201;-72
2022/05/23 07:34:28;;;;;;;0.90;0.90;;;;;18.90;97226.00;;;;5012860;28;20213;-71
2022/05/23 07:36:55;;;;;;;1.00;1.00;;;19.30;80.80;19.10;97222.00;;;;5013807;28;20235;-71
2022/05/23 07:39:22;;;;;;;0.90;0.90;;;19.40;79.30;19.10;97229.00;;;;4996393;28;20237;-71
2022/05/23 07:41:48;;;;;;;1.20;1.20;;;19.40;79.20;19.10;97241.00;;;;5013684;28;20240;-71
2022/05/23 07:44:15;;;;;;;0.93;0.93;;;19.50;78.50;19.30;97232.00;;;;5013725;28;20194;-71
2022/05/23 07:46:44;;;;;;;0.60;0.60;;;19.60;80.00;19.40;97235.00;;;;4996357;28;20201;-71
2022/05/23 07:49:10;;;;;;;1.10;1.10;;;19.70;77.60;19.40;97220.00;;;;5013717;28;20229;-72
2022/05/23 07:51:37;;;;;;;0.70;0.70;;;;;19.40;97227.00;;;;5012682;28;20224;-72
2022/05/23 08:02:20;;;;;;;0.83;0.83;;;19.80;72.50;19.60;97205.00;;;;5017105;28;20289;-73
2022/05/23 08:04:46;;;;;;;0.90;0.90;;;20.00;74.50;19.70;97218.00;;;;5016954;28;20370;-72
2022/05/23 08:07:13;;;;;;;0.60;0.60;;;20.00;75.50;19.70;97217.00;;;;4999575;28;20252;-72
2022/05/23 08:09:40;;;;;;;0.53;0.53;;;20.10;75.40;19.80;97210.00;;;;5016859;28;20221;-72
2022/05/23 08:12:11;;;;;;;0.63;0.63;;;;;19.90;97207.00;;;;4999571;28;20228;-73
2022/05/23 08:14:38;;;;;;;0.50;0.50;;;20.20;74.00;20.00;97209.00;;;;5016807;28;20194;-72
2022/05/23 08:17:05;;;;;;;1.30;1.07;;;20.30;72.80;19.80;97200.00;;;;5016860;28;20221;-72
2022/05/23 08:19:32;;;;;;;0.50;0.50;;;20.20;72.40;19.80;97204.00;;;;5016760;28;20221;-72
2022/05/23 08:22:01;;;;;;;0.63;0.63;;;20.20;73.30;19.80;97195.00;;;;5016778;28;20252;-72
2022/05/23 08:24:28;;;;;;;2.53;1.07;;;;;19.90;97188.00;;;;5017992;28;20197;-73
2022/05/23 08:26:54;;;;;;;0.50;0.50;;;20.20;72.20;19.80;97175.00;;;;5017105;28;20225;-72
2022/05/23 08:29:21;;;;;;;1.17;1.07;;;20.20;75.00;20.00;97186.00;;;;5021233;28;20225;-71
2022/05/23 08:31:49;;;;;;;0.60;0.60;;;20.30;74.30;20.00;97181.00;;;;5016538;28;20314;-72
2022/05/23 08:34:16;;;;;;;0.60;0.60;;;20.40;71.50;20.00;97138.00;;;;4999185;28;20228;-72
2022/05/23 08:36:44;;;;;;;0.70;0.70;;;20.40;71.70;20.10;97151.00;;;;5016424;28;20192;-73
2022/05/23 08:39:11;;;;;;;1.53;1.00;;;20.50;76.70;20.20;97161.00;;;;5016505;28;20225;-73
2022/05/23 08:41:41;;;;;;;1.07;1.07;;;20.60;74.30;20.30;97151.00;;;;5015524;28;20201;-72
2022/05/23 08:44:18;;;;;;;0.60;0.60;;;20.70;74.70;20.30;97147.00;;;;5016493;28;20202;-71
2022/05/23 08:46:55;;;;;;;0.60;0.60;;;20.70;73.80;20.50;97151.00;;;;5015531;28;20208;-73
2022/05/23 08:49:42;;;;;;;0.50;0.50;;;;;20.80;97152.00;;;;5016271;28;20307;-73
2022/05/23 08:52:17;;;;;;;0.50;0.50;;;21.00;71.70;20.80;97149.00;;;;4999142;28;20294;-72
2022/05/23 08:54:57;;;;;;;0.53;0.53;;;21.10;69.90;20.80;97150.00;;;;5016360;28;20305;-72
2022/05/23 08:57:35;;;;;;;0.40;0.40;;;21.10;69.60;20.80;97159.00;;;;5016346;28;20213;-72
2022/05/23 09:00:08;;;;;;;0.97;0.97;;;21.20;69.90;21.00;97153.00;;;;5016043;28;20240;-72
2022/05/23 09:02:42;;;;;;;0.47;0.47;;;21.30;68.20;21.30;97148.00;;;;5016117;28;20263;-72
2022/05/23 09:05:15;;;;;;;0.57;0.57;;;21.50;70.70;21.30;97139.00;;;;5015850;28;20256;-73
2022/05/23 09:07:47;;;;;;;0.60;0.60;;;21.70;67.60;21.60;97147.00;;;;5016081;28;20266;-73
2022/05/23 09:10:23;;;;;;;0.60;0.60;;;21.70;64.20;21.50;97153.00;;;;5016089;28;20193;-72
2022/05/23 09:12:52;;;;;;;0.50;0.50;;;21.80;63.70;21.60;97156.00;;;;5015981;28;20178;-73
2022/05/23 09:15:23;;;;;;;0.80;0.77;;;21.90;64.10;21.60;97162.00;;;;5015932;28;20224;-73
2022/05/23 09:17:55;;;;;;;1.17;0.98;;;22.00;61.90;21.70;97157.00;;;;5015896;28;20275;-72
2022/05/23 09:20:35;;;;;;;0.70;0.70;;;22.10;61.30;21.80;97157.00;;;;5015948;28;20249;-72
2022/05/23 09:23:10;;;;;;;0.57;0.57;;;22.10;62.50;21.90;97164.00;;;;5015762;28;20235;-72
2022/05/23 09:25:37;;;;;;;0.57;0.57;;;22.20;63.10;21.80;97155.00;;;;4998508;28;20201;-74
2022/05/23 09:28:20;;;;;;;0.55;0.55;;;22.10;59.80;21.70;97149.00;;;;5015599;28;20225;-73
2022/05/23 09:30:56;;;;;;;0.50;0.50;;;22.10;61.90;21.70;97146.00;;;;4998519;28;20335;-73
2022/05/23 09:33:24;;;;;;;0.73;0.73;;;;;21.90;97150.00;;;;5015635;28;20226;-73
2022/05/23 09:35:54;;;;;;;0.68;0.68;;;;;21.90;97150.00;;;;5015577;28;20204;-73
2022/05/23 09:38:25;;;;;;;0.75;0.75;;;22.30;62.40;21.90;97142.00;;;;5015452;28;20232;-73
2022/05/23 09:40:53;;;;;;;0.60;0.60;;;;;22.00;97147.00;;;;5015544;28;20633;-73
2022/05/23 09:49:08;;;;;;;0.68;0.68;;;22.50;60.70;22.50;97151.00;;;;5015469;28;20201;-73
2022/05/23 09:51:54;;;;;;;0.80;0.80;;;22.80;61.90;22.70;97168.00;;;;5015530;28;20235;-72
2022/05/23 09:54:28;;;;;;;1.20;1.10;;;23.00;61.00;22.90;97165.00;;;;5015295;28;20201;-73
2022/05/23 09:57:00;;;;;;;1.15;1.05;;;;;22.70;97161.00;;;;5015311;28;20198;-72
2022/05/23 09:59:33;;;;;;;0.85;0.85;;;23.00;56.50;22.50;97154.00;;;;5015163;28;20280;-74
2022/05/23 10:02:05;;;;;;;0.90;0.90;;;23.00;57.00;22.80;97163.00;;;;5015241;28;20240;-73
2022/05/23 10:04:40;;;;;;;0.60;0.60;;;;;23.00;97169.00;;;;5015162;28;20269;-73
2022/05/23 10:07:21;;;;;;;0.93;0.93;;;23.30;56.80;23.20;97168.00;;;;5015200;28;20224;-72
2022/05/23 10:09:58;;;;;;;0.60;0.60;;;23.50;54.70;23.10;97183.00;;;;4998007;28;20267;-73
2022/05/23 10:12:25;;;;;;;0.68;0.68;;;23.40;56.00;23.10;97203.00;;;;5015125;28;20669;-72
2022/05/23 10:15:03;;;;;;;0.43;0.43;;;23.50;54.80;22.70;97213.00;;;;5015107;28;20665;-72
2022/05/23 10:17:34;;;;;;;0.80;0.80;;;23.20;55.10;22.80;97196.00;;;;5014372;28;20213;-73
2022/05/23 10:20:28;;;;;;;0.47;0.47;;;23.10;54.60;22.50;97204.00;;;;5015506;28;20225;-73
2022/05/23 10:22:59;;;;;;;0.50;0.50;;;22.90;55.40;22.30;97193.00;;;;5019800;28;20733;-72
2022/05/23 10:25:36;;;;;;;9.20;1.08;;;22.80;57.00;22.20;97196.00;;;;4999522;28;20216;-72
2022/05/23 10:28:12;;;;;;;0.50;0.50;;;22.70;56.70;22.30;97200.00;;;;5016287;28;20197;-72
2022/05/23 10:30:48;;;;;;;0.70;0.70;;;22.70;58.70;22.40;97203.00;;;;5015107;28;20201;-73
2022/05/23 10:33:15;;;;;;;0.70;0.70;;;22.80;58.00;22.50;97200.00;;;;5014862;28;20533;-73
2022/05/23 10:35:47;;;;;;;0.60;0.60;;;22.80;58.70;22.50;97206.00;;;;5014629;28;20692;-73
2022/05/23 10:44:16;;;;;;;0.70;0.70;;;22.90;58.20;22.50;97228.00;;;;5014584;28;20247;-73
2022/05/23 10:46:47;;;;;;;0.47;0.47;;;;;22.30;97223.00;;;;5014583;28;20280;-72
2022/05/23 10:49:24;;;;;;;3.03;0.65;;;22.70;56.50;22.30;97215.00;;;;5014539;28;20213;-72
2022/05/23 10:52:06;;;;;;;0.60;0.60;;;22.70;58.10;22.20;97232.00;;;;4997409;28;20668;-72
2022/05/23 10:54:50;;;;;;;1.85;1.27;;;22.70;60.30;22.20;97237.00;;;;5013607;28;20228;-73
2022/05/23 10:57:34;;;;;;;0.40;0.40;;;22.60;58.50;22.00;97233.00;;;;5014420;28;20649;-73
2022/05/23 11:00:07;;;;;;;0.50;0.50;;;22.50;59.80;21.80;97236.00;;;;5014371;28;20224;-72
2022/05/23 11:02:53;;;;;;;0.90;0.90;;;22.30;60.10;21.70;97234.00;;;;5014228;28;20228;-72
2022/05/23 11:05:29;;;;;;;19.33;1.85;;;22.30;61.50;21.70;97242.00;;;;5014344;28;20497;-72
2022/05/23 11:08:16;;;;;;;0.73;0.70;;;22.10;62.10;21.60;97268.00;;;;4996950;28;20669;-73
2022/05/23 11:10:53;;;;;;;0.57;0.57;;;22.10;62.50;21.40;97281.00;;;;5014269;28;20284;-72
2022/05/23 11:13:58;;;;;;;0.75;0.73;;;21.80;64.50;21.20;97311.00;;;;5014165;28;20259;-73
2022/05/23 11:16:36;;;;;;;0.73;0.73;;;21.70;65.90;21.20;97300.00;;;;5014138;28;20280;-72
2022/05/23 11:19:21;;;;;;;0.80;0.80;;;21.70;69.90;20.90;97314.00;;;;5013964;28;20225;-72
2022/05/23 11:22:02;;;;;;;0.95;0.95;;;21.50;72.20;20.70;97334.00;;;;5014315;28;20268;-73
2022/05/23 11:24:39;;;;;;;0.77;0.77;;;21.30;75.80;20.60;97321.00;;;;5013911;28;20201;-72
2022/05/23 11:35:52;;;;;;;1.07;1.07;;;20.90;81.90;20.10;97310.00;;;;5013895;28;20221;-73
2022/05/23 11:38:20;;;;;;;0.53;0.53;;;20.60;82.10;20.00;97319.00;;;;5013733;28;20213;-72
2022/05/23 11:41:05;;;;;;;0.90;0.90;;;20.50;85.50;19.90;97330.00;;;;5013818;28;20268;-72
2022/05/23 11:43:33;;;;;;;1.00;1.00;;;20.50;88.00;19.90;97320.00;;;;5013785;28;20205;-72
2022/05/23 11:46:05;;;;;;;0.90;0.90;;;20.50;87.10;20.00;97324.00;;;;5013692;28;20225;-73
2022/05/23 11:48:55;;;;;;;0.63;0.63;;;20.50;87.80;19.80;97316.00;;;;5013777;28;20197;-72
2022/05/23 11:51:38;;;;;;;2.00;1.80;;;20.40;89.90;20.00;97318.00;;;;4996407;28;20201;-72
2022/05/23 11:54:37;;;;;;;0.80;0.80;;;20.40;89.40;19.80;97304.00;;;;5013655;28;20233;-72
2022/05/23 11:57:28;;;;;;;1.40;1.30;;;20.30;90.40;19.80;97283.00;;;;5013591;28;20225;-72
2022/05/23 12:00:30;;;;;;;2.27;1.33;;;20.30;90.00;19.80;97258.00;;;;4996205;28;20233;-72
2022/05/23 12:03:14;;;;;;;0.83;0.83;;;20.30;90.40;19.90;97225.00;;;;5013619;28;20286;-73
2022/05/23 12:05:42;;;;;;;0.70;0.70;;;20.30;91.00;19.80;97192.00;;;;4996590;28;20502;-73
2022/05/23 12:08:37;;;;;;;0.50;0.50;;;20.30;92.10;19.80;97140.00;;;;5013466;28;20649;-73
2022/05/23 12:11:21;;;;;;;2.10;1.30;;;20.30;93.80;19.90;97134.00;;;;5013461;28;20292;-74